Overview Statistics Trail Chart Weather Telemetry Raw packets
 

This is the latest recevied weather packets stored in our database for station/object VU3OPX-13. If no packets are shown the sender has not sent any weather packets the latest 10 day(s).

<< 1 2 3 4 5 6 >>
Time Temp. Humidity Pressure Rain* Wind** Luminosity Snow
1788318179 23.33° C 84% 1013 hPa 0 mm - - -
1788316391 23.33° C 84% 1013 hPa 0 mm - - -
1788314604 21.67° C 93% 1013 hPa 0 mm - - -
1788312817 21.67° C 93% 1013 hPa 0 mm - - -
1788311029 20.56° C 98% 1012 hPa 0 mm - - -
1788309242 20° C 98% 1012 hPa 0 mm - - -
1788307454 20° C 98% 1011 hPa 0 mm - - -
1788305667 20° C 98% 1011 hPa 0 mm - - -
1788303880 20° C 99% 1011 hPa 0 mm - - -
1788302093 20° C 99% 1011 hPa 0 mm - - -
1788300305 20.56° C 99% 1011 hPa 0 mm - - -
1788298518 20° C 99% 1011 hPa 0 mm - - -
1788296731 20.56° C 99% 1011 hPa 0 mm - - -
1788294944 20.56° C 99% 1011 hPa 0 mm - - -
1788293156 20.56° C 98% 1012 hPa 0 mm - - -
1788291369 20.56° C 98% 1012 hPa 0 mm - - -
1788289578 20.56° C 98% 1013 hPa 0 mm - - -
1788286002 21.11° C 95% 1013 hPa 0 mm - - -
1788282427 21.67° C 94% 1014 hPa 0 mm - - -
1788280638 21.11° C 94% 1014 hPa 0 mm - - -
1788278851 21.67° C 93% 1014 hPa 0 mm - - -
1788277063 21.67° C 93% 1013 hPa 0 mm - - -
1788275276 22.22° C 91% 1013 hPa 0 mm - - -
1788273489 22.22° C 90% 1013 hPa 0 mm - - -
1788271702 22.78° C 87% 1012 hPa 0 mm - - -

* Rain latest hour (hover to see other rain measurements)
** Current wind speed in m/s (hover to see current wind gust speed)